createdAt,value
2018-08-14T00:01:12.926Z,3.77
2018-08-14T00:03:41.357Z,3.43
2018-08-14T00:06:09.782Z,3.63
2018-08-14T00:08:38.208Z,3.87
2018-08-14T00:11:06.791Z,3.97
2018-08-14T00:13:35.221Z,3.60
2018-08-14T00:16:03.748Z,3.40
2018-08-14T00:18:32.229Z,3.90
2018-08-14T00:21:00.697Z,3.83
2018-08-14T00:23:29.191Z,4.17
2018-08-14T00:25:57.719Z,4.10
2018-08-14T00:28:26.128Z,5.20
2018-08-14T00:30:54.558Z,4.17
2018-08-14T00:33:23.097Z,4.53
2018-08-14T00:35:51.600Z,4.23
2018-08-14T00:38:20.086Z,3.80
2018-08-14T00:40:48.525Z,4.17
2018-08-14T00:43:17.048Z,3.87
2018-08-14T00:45:45.541Z,6.93
2018-08-14T00:48:14.052Z,6.70
2018-08-14T00:50:42.521Z,6.77
2018-08-14T00:53:10.981Z,7.20
2018-08-14T00:55:40.129Z,7.90
2018-08-14T00:58:08.861Z,7.43
2018-08-14T01:00:37.450Z,7.00
2018-08-14T01:03:06.501Z,6.57
2018-08-14T01:05:34.976Z,7.73
2018-08-14T01:08:03.464Z,6.13
2018-08-14T01:10:31.905Z,6.73
2018-08-14T01:13:00.563Z,6.57
2018-08-14T01:15:30.239Z,7.03
2018-08-14T01:17:59.275Z,7.07
2018-08-14T01:20:29.422Z,6.43
2018-08-14T01:22:57.927Z,8.30
2018-08-14T01:25:26.415Z,8.13
2018-08-14T01:27:55.169Z,6.80
2018-08-14T01:30:30.226Z,6.67
2018-08-14T01:32:58.770Z,7.17
2018-08-14T01:35:27.736Z,7.77
2018-08-14T01:37:56.277Z,8.97
2018-08-14T01:40:24.828Z,8.00
2018-08-14T01:42:53.561Z,9.63
2018-08-14T01:45:22.073Z,8.07
2018-08-14T01:47:50.691Z,8.17
2018-08-14T01:50:22.287Z,7.70
2018-08-14T01:52:50.821Z,8.67
2018-08-14T01:55:20.451Z,8.63
2018-08-14T01:57:49.191Z,9.87
2018-08-14T02:00:24.810Z,9.37
2018-08-14T02:02:53.362Z,9.10
2018-08-14T02:05:21.934Z,9.67
2018-08-14T02:07:50.437Z,10.30
2018-08-14T02:10:20.237Z,10.80
2018-08-14T02:12:48.949Z,10.63
2018-08-14T02:15:18.350Z,11.20
2018-08-14T02:17:46.964Z,11.57
2018-08-14T02:20:19.900Z,11.47
2018-08-14T02:22:49.121Z,11.90
2018-08-14T02:25:17.705Z,11.43
2018-08-14T02:27:46.373Z,11.30
2018-08-14T02:30:15.667Z,12.30
2018-08-14T02:32:44.234Z,11.73
2018-08-14T02:35:13.184Z,11.00
2018-08-14T02:37:41.737Z,11.53
2018-08-14T02:40:16.423Z,13.13
2018-08-14T02:42:45.221Z,12.13
2018-08-14T02:45:13.713Z,13.80
2018-08-14T02:47:42.171Z,10.93
2018-08-14T02:50:11.417Z,11.80
2018-08-14T02:52:40.069Z,10.57
2018-08-14T02:55:10.759Z,10.43
2018-08-14T02:57:39.255Z,11.57
2018-08-14T03:00:10.657Z,10.63
2018-08-14T03:02:39.551Z,10.93
2018-08-14T03:05:08.006Z,10.13
2018-08-14T03:07:36.526Z,10.20
2018-08-14T03:10:07.015Z,10.03
2018-08-14T03:12:35.513Z,9.77
2018-08-14T03:15:04.098Z,9.47
2018-08-14T03:17:32.637Z,9.60
2018-08-14T03:20:01.129Z,10.90
2018-08-14T03:22:29.614Z,9.00
2018-08-14T03:24:58.132Z,9.83
2018-08-14T03:27:26.615Z,9.60
2018-08-14T03:29:55.106Z,10.00
2018-08-14T03:32:23.609Z,8.67
2018-08-14T03:34:52.311Z,8.80
2018-08-14T03:37:21.198Z,7.73
2018-08-14T03:39:49.742Z,8.30
2018-08-14T03:42:18.604Z,8.27
2018-08-14T03:44:47.099Z,8.63
2018-08-14T03:47:15.564Z,6.87
2018-08-14T03:49:44.066Z,9.40
2018-08-14T03:52:12.550Z,7.83
2018-08-14T03:54:41.081Z,7.10
2018-08-14T03:57:09.528Z,8.40
2018-08-14T03:59:38.048Z,8.30
2018-08-14T04:02:06.612Z,11.10
2018-08-14T04:04:35.091Z,9.33
2018-08-14T04:07:03.539Z,7.37
2018-08-14T04:09:32.014Z,8.27
2018-08-14T04:12:00.477Z,10.00
2018-08-14T04:14:28.920Z,8.93
2018-08-14T04:16:57.460Z,8.20
2018-08-14T04:19:26.008Z,9.97
2018-08-14T04:21:54.453Z,8.63
2018-08-14T04:24:22.871Z,8.17
2018-08-14T04:26:52.350Z,10.60
2018-08-14T04:29:20.773Z,10.03
2018-08-14T04:31:49.259Z,9.60
2018-08-14T04:34:17.727Z,9.73
2018-08-14T04:36:46.253Z,9.30
2018-08-14T04:39:14.689Z,9.83
2018-08-14T04:41:43.216Z,9.20
2018-08-14T04:44:11.652Z,9.87
2018-08-14T04:46:40.107Z,8.03
2018-08-14T04:49:08.593Z,9.70
2018-08-14T04:51:37.025Z,10.77
2018-08-14T04:54:05.540Z,8.57
2018-08-14T04:56:34.050Z,8.83
2018-08-14T04:59:02.598Z,8.97
2018-08-14T05:01:31.630Z,8.90
2018-08-14T05:04:00.114Z,11.50
2018-08-14T05:06:28.553Z,8.53
2018-08-14T05:08:57.108Z,8.40
2018-08-14T05:11:25.608Z,8.63
2018-08-14T05:13:57.690Z,9.30
2018-08-14T05:16:26.682Z,7.77
2018-08-14T05:18:55.560Z,8.53
2018-08-14T05:21:24.047Z,8.23
2018-08-14T05:23:52.465Z,9.00
2018-08-14T05:26:20.932Z,7.97
2018-08-14T05:28:52.657Z,9.87
2018-08-14T05:31:21.169Z,10.10
2018-08-14T05:33:49.762Z,9.53
2018-08-14T05:36:18.302Z,9.20
2018-08-14T05:38:46.984Z,8.90
2018-08-14T05:41:15.444Z,9.77
2018-08-14T05:43:43.894Z,8.30
2018-08-14T05:46:12.381Z,8.27
2018-08-14T05:48:40.808Z,8.63
2018-08-14T05:51:09.258Z,7.93
2018-08-14T05:53:37.744Z,8.57
2018-08-14T05:56:06.225Z,8.30
2018-08-14T05:58:34.809Z,10.33
2018-08-14T06:01:03.328Z,10.17
2018-08-14T06:03:31.787Z,10.47
2018-08-14T06:06:01.206Z,9.00
2018-08-14T06:08:29.961Z,9.43
2018-08-14T06:10:58.874Z,9.60
2018-08-14T06:13:27.904Z,10.57
2018-08-14T06:16:02.506Z,9.70
2018-08-14T06:18:30.974Z,10.47
2018-08-14T06:21:00.742Z,10.43
2018-08-14T06:23:31.154Z,11.20
2018-08-14T06:26:01.569Z,9.70
2018-08-14T06:28:32.098Z,10.63
2018-08-14T06:31:02.219Z,11.33
2018-08-14T06:33:31.003Z,10.00
2018-08-14T06:36:00.000Z,9.30
2018-08-14T06:38:29.598Z,10.00
2018-08-14T06:41:02.905Z,10.73
2018-08-14T06:43:33.765Z,11.20
2018-08-14T06:46:03.504Z,9.93
2018-08-14T06:48:34.125Z,10.53
2018-08-14T06:51:04.445Z,12.10
2018-08-14T06:53:33.155Z,9.63
2018-08-14T06:56:03.027Z,9.47
2018-08-14T06:58:36.730Z,12.03
2018-08-14T07:01:05.269Z,9.00
2018-08-14T07:03:34.242Z,9.87
2018-08-14T07:06:02.761Z,9.70
2018-08-14T07:08:32.333Z,10.17
2018-08-14T07:11:01.563Z,9.43
2018-08-14T07:13:32.188Z,9.83
2018-08-14T07:16:02.259Z,8.33
2018-08-14T07:18:31.872Z,11.30
2018-08-14T07:21:01.412Z,11.30
2018-08-14T07:23:31.826Z,11.23
2018-08-14T07:26:00.925Z,11.63
2018-08-14T07:28:30.236Z,13.80
2018-08-14T07:31:01.358Z,10.13
2018-08-14T07:33:30.059Z,10.53
2018-08-14T07:35:59.090Z,11.60
2018-08-14T07:38:28.433Z,13.80
2018-08-14T07:40:57.870Z,12.37
2018-08-14T07:43:27.220Z,14.23
2018-08-14T07:45:56.566Z,13.70
2018-08-14T07:48:25.805Z,11.03
2018-08-14T07:50:56.729Z,12.03
2018-08-14T07:53:26.007Z,12.27
2018-08-14T07:55:55.557Z,11.13
2018-08-14T07:58:26.172Z,12.07
2018-08-14T08:00:56.070Z,10.53
2018-08-14T08:03:25.456Z,10.13
2018-08-14T08:05:59.663Z,9.03
2018-08-14T08:08:29.022Z,10.43
2018-08-14T08:10:58.862Z,8.93
2018-08-14T08:13:27.728Z,10.20
2018-08-14T08:15:57.371Z,8.73
2018-08-14T08:18:28.862Z,9.43
2018-08-14T08:20:58.714Z,8.00
2018-08-14T08:23:28.468Z,8.60
2018-08-14T08:25:57.088Z,12.23
2018-08-14T08:28:28.001Z,9.33
2018-08-14T08:30:58.112Z,8.47
2018-08-14T08:33:26.854Z,10.77
2018-08-14T08:35:56.713Z,9.10
2018-08-14T08:38:26.386Z,9.83
2018-08-14T08:40:56.423Z,10.53
2018-08-14T08:43:25.776Z,12.47
2018-08-14T08:45:54.881Z,13.30
2018-08-14T08:48:24.746Z,11.00
2018-08-14T08:50:53.644Z,11.13
2018-08-14T08:53:23.845Z,10.53
2018-08-14T08:55:52.920Z,12.10
2018-08-14T08:58:22.352Z,14.20
2018-08-14T09:00:52.234Z,13.20
2018-08-14T09:03:25.246Z,13.30
2018-08-14T09:05:55.898Z,14.43
2018-08-14T09:08:26.152Z,14.70
2018-08-14T09:10:56.126Z,13.90
2018-08-14T09:13:27.347Z,15.50
2018-08-14T09:15:56.714Z,15.70
2018-08-14T09:18:25.567Z,14.13
2018-08-14T09:20:56.974Z,14.80
2018-08-14T09:23:26.993Z,16.33
2018-08-14T09:25:57.378Z,12.67
2018-08-14T09:28:26.449Z,13.53
2018-08-14T09:30:55.557Z,14.10
2018-08-14T09:33:25.006Z,15.20
2018-08-14T09:35:54.431Z,13.43
2018-08-14T09:38:23.317Z,13.77
2018-08-14T09:40:53.022Z,14.50
2018-08-14T09:43:22.468Z,15.03
2018-08-14T09:45:52.073Z,14.63
2018-08-14T09:48:24.805Z,14.13
2018-08-14T09:50:53.423Z,13.33
2018-08-14T09:53:24.120Z,13.50
2018-08-14T09:55:53.653Z,13.27
2018-08-14T09:58:23.769Z,13.73
2018-08-14T10:00:58.952Z,14.00
2018-08-14T10:03:36.545Z,13.17
2018-08-14T10:06:10.670Z,13.63
2018-08-14T10:08:39.735Z,16.33
2018-08-14T10:11:10.201Z,13.10
2018-08-14T10:13:40.068Z,15.47
2018-08-14T10:16:09.922Z,13.03
2018-08-14T10:18:38.825Z,13.27
2018-08-14T10:21:08.083Z,13.43
2018-08-14T10:23:38.043Z,13.40
2018-08-14T10:26:08.005Z,13.70
2018-08-14T10:28:37.553Z,12.47
2018-08-14T10:31:07.155Z,14.30
2018-08-14T10:33:37.088Z,14.63
2018-08-14T10:36:06.994Z,14.50
2018-08-14T10:38:36.803Z,13.80
2018-08-14T10:41:06.189Z,12.87
2018-08-14T10:43:35.007Z,13.47
2018-08-14T10:46:04.472Z,14.47
2018-08-14T10:48:34.535Z,11.23
2018-08-14T10:51:03.406Z,10.40
2018-08-14T10:53:32.912Z,11.90
2018-08-14T10:56:01.508Z,14.60
2018-08-14T10:58:30.872Z,11.80
2018-08-14T11:00:59.854Z,13.03
2018-08-14T11:03:28.839Z,12.77
2018-08-14T11:05:58.061Z,12.60
2018-08-14T11:08:27.390Z,13.43
2018-08-14T11:11:02.029Z,12.73
2018-08-14T11:13:30.950Z,11.60
2018-08-14T11:16:00.167Z,11.23
2018-08-14T11:18:28.864Z,11.50
2018-08-14T11:20:58.886Z,8.70
2018-08-14T11:23:28.821Z,9.70
2018-08-14T11:25:58.839Z,12.80
2018-08-14T11:28:27.798Z,9.97
2018-08-14T11:30:57.312Z,11.10
2018-08-14T11:33:27.343Z,9.73
2018-08-14T11:36:01.262Z,9.87
2018-08-14T11:38:30.565Z,8.60
2018-08-14T11:41:00.679Z,8.77
2018-08-14T11:43:31.913Z,8.13
2018-08-14T11:46:00.500Z,7.80
2018-08-14T11:48:30.090Z,8.20
2018-08-14T11:50:59.196Z,7.93
2018-08-14T11:53:32.987Z,8.43
2018-08-14T11:56:03.163Z,8.87
2018-08-14T11:58:32.290Z,9.87
2018-08-14T12:01:01.774Z,8.30
2018-08-14T12:03:32.304Z,8.63
2018-08-14T12:06:02.147Z,8.40
2018-08-14T12:08:32.270Z,8.57
2018-08-14T12:11:01.123Z,8.40
2018-08-14T12:13:30.596Z,7.97
2018-08-14T12:16:01.286Z,7.97
2018-08-14T12:18:30.510Z,10.47
2018-08-14T12:20:59.894Z,8.03
2018-08-14T12:23:28.447Z,8.07
2018-08-14T12:25:57.503Z,8.97
2018-08-14T12:28:27.596Z,8.23
2018-08-14T12:30:57.010Z,9.30
2018-08-14T12:33:25.747Z,9.40
2018-08-14T12:35:54.325Z,9.47
2018-08-14T12:38:27.406Z,8.93
2018-08-14T12:40:56.634Z,8.27
2018-08-14T12:43:27.420Z,7.97
2018-08-14T12:46:02.381Z,8.03
2018-08-14T12:48:32.485Z,8.17
2018-08-14T12:51:01.610Z,7.43
2018-08-14T12:53:30.910Z,8.20
2018-08-14T12:56:00.115Z,9.00
2018-08-14T12:58:30.654Z,8.00
2018-08-14T13:01:00.025Z,8.27
2018-08-14T13:03:28.681Z,8.90
2018-08-14T13:05:57.213Z,8.53
2018-08-14T13:08:26.167Z,7.93
2018-08-14T13:10:55.334Z,8.30
2018-08-14T13:13:24.134Z,7.43
2018-08-14T13:15:52.574Z,9.57
2018-08-14T13:18:21.042Z,7.70
2018-08-14T13:20:49.481Z,7.27
2018-08-14T13:23:17.973Z,7.57
2018-08-14T13:25:46.489Z,8.13
2018-08-14T13:28:14.925Z,7.60
2018-08-14T13:30:43.468Z,6.43
2018-08-14T13:33:11.873Z,6.80
2018-08-14T13:35:40.338Z,8.67
2018-08-14T13:38:08.812Z,6.67
2018-08-14T13:40:37.333Z,7.77
2018-08-14T13:43:05.876Z,7.30
2018-08-14T13:45:34.350Z,7.30
2018-08-14T13:48:02.863Z,6.93
2018-08-14T13:50:31.393Z,9.03
2018-08-14T13:52:59.913Z,7.90
2018-08-14T13:55:28.408Z,8.33
2018-08-14T13:57:56.921Z,9.33
2018-08-14T14:00:27.429Z,9.83
2018-08-14T14:02:55.903Z,9.70
2018-08-14T14:05:24.338Z,11.83
2018-08-14T14:07:52.804Z,8.80
2018-08-14T14:10:21.889Z,8.80
2018-08-14T14:12:50.365Z,10.30
2018-08-14T14:15:23.127Z,10.50
2018-08-14T14:17:52.678Z,10.00
2018-08-14T14:20:22.617Z,11.30
2018-08-14T14:22:51.287Z,12.70
2018-08-14T14:25:19.805Z,11.20
2018-08-14T14:27:48.399Z,12.13
2018-08-14T14:30:17.580Z,15.07
2018-08-14T14:32:46.985Z,14.30
2018-08-14T14:35:15.625Z,13.60
2018-08-14T14:37:44.229Z,13.97
2018-08-14T14:40:19.897Z,14.77
2018-08-14T14:42:51.961Z,14.77
2018-08-14T14:45:20.420Z,12.93
2018-08-14T14:47:48.982Z,13.67
2018-08-14T14:50:17.485Z,14.03
2018-08-14T14:52:46.272Z,13.53
2018-08-14T14:55:17.950Z,10.33
2018-08-14T14:57:47.702Z,13.70
2018-08-14T15:00:24.065Z,15.07
2018-08-14T15:02:54.898Z,14.47
2018-08-14T15:05:23.693Z,13.80
2018-08-14T15:07:52.497Z,13.50
2018-08-14T15:10:21.394Z,13.37
2018-08-14T15:12:49.947Z,13.53
2018-08-14T15:15:18.446Z,12.57
2018-08-14T15:17:47.601Z,12.63
2018-08-14T15:20:20.245Z,12.50
2018-08-14T15:22:49.810Z,12.17
2018-08-14T15:25:19.594Z,12.17
2018-08-14T15:29:33.261Z,10.83
2018-08-14T15:32:03.984Z,10.57
2018-08-14T15:34:33.765Z,9.87
2018-08-14T15:37:06.844Z,10.23
2018-08-14T15:39:35.332Z,9.43
2018-08-14T15:42:04.075Z,9.50
2018-08-14T15:44:32.572Z,8.87
2018-08-14T15:47:01.046Z,9.73
2018-08-14T15:49:29.756Z,8.57
2018-08-14T15:51:58.186Z,8.63
2018-08-14T15:54:26.811Z,8.33
2018-08-14T15:56:55.377Z,8.13
2018-08-14T15:59:23.878Z,8.03
2018-08-14T16:01:52.442Z,8.03
2018-08-14T16:04:20.983Z,9.40
2018-08-14T16:06:50.499Z,9.20
2018-08-14T16:09:21.561Z,8.70
2018-08-14T16:11:50.690Z,9.10
2018-08-14T16:14:25.820Z,9.53
2018-08-14T16:16:54.452Z,8.90
2018-08-14T16:19:22.345Z,9.43
2018-08-14T16:21:50.863Z,11.10
2018-08-14T16:24:19.489Z,10.70
2018-08-14T16:26:48.031Z,10.67
2018-08-14T16:29:22.393Z,11.00
2018-08-14T16:31:50.969Z,10.73
2018-08-14T16:34:19.514Z,10.30
2018-08-14T16:36:48.138Z,10.10
2018-08-14T16:39:16.662Z,11.13
2018-08-14T16:41:45.641Z,11.57
2018-08-14T16:44:14.102Z,11.07
2018-08-14T16:46:42.692Z,11.53
2018-08-14T16:49:11.119Z,9.80
2018-08-14T16:51:39.729Z,9.73
2018-08-14T16:54:08.206Z,12.03
2018-08-14T16:56:36.668Z,11.00
2018-08-14T16:59:05.289Z,10.93
2018-08-14T17:01:33.950Z,13.57
2018-08-14T17:04:02.454Z,13.07
2018-08-14T17:06:30.917Z,10.37
2018-08-14T17:08:59.377Z,11.30
2018-08-14T17:11:28.919Z,11.37
2018-08-14T17:13:57.341Z,10.40
2018-08-14T17:16:25.809Z,10.10
2018-08-14T17:18:54.322Z,9.07
2018-08-14T17:21:21.573Z,10.80
2018-08-14T17:23:50.068Z,8.77
2018-08-14T17:26:18.487Z,8.27
2018-08-14T17:28:47.069Z,7.90
2018-08-14T17:31:15.534Z,6.90
2018-08-14T17:33:44.077Z,8.00
2018-08-14T17:36:12.538Z,8.47
2018-08-14T17:38:41.277Z,8.93
2018-08-14T17:41:10.183Z,8.73
2018-08-14T17:43:38.777Z,8.60
2018-08-14T17:46:07.230Z,9.53
2018-08-14T17:48:43.598Z,9.27
2018-08-14T17:51:12.051Z,9.27
2018-08-14T17:53:40.589Z,10.57
2018-08-14T17:56:09.076Z,9.33
2018-08-14T17:58:37.610Z,10.27
2018-08-14T18:01:07.156Z,9.73
2018-08-14T18:03:35.671Z,9.53
2018-08-14T18:06:04.130Z,9.67
2018-08-14T18:08:32.618Z,9.83
2018-08-14T18:11:01.050Z,9.93
2018-08-14T18:13:29.579Z,10.80
2018-08-14T18:15:58.161Z,9.70
2018-08-14T18:18:28.761Z,13.27
2018-08-14T18:20:57.225Z,10.33
2018-08-14T18:23:25.711Z,10.23
2018-08-14T18:25:54.184Z,10.50
2018-08-14T18:28:22.666Z,12.80
2018-08-14T18:30:51.102Z,11.47
2018-08-14T18:33:19.734Z,11.37
2018-08-14T18:35:48.389Z,12.10
2018-08-14T18:38:16.965Z,12.13
2018-08-14T18:40:45.507Z,11.73
2018-08-14T18:43:14.077Z,11.97
2018-08-14T18:45:42.517Z,11.30
2018-08-14T18:48:11.018Z,11.67
2018-08-14T18:50:39.567Z,11.00
2018-08-14T18:53:10.303Z,11.83
2018-08-14T18:55:38.786Z,12.27
2018-08-14T18:58:07.312Z,11.93
2018-08-14T19:00:35.816Z,11.77
2018-08-14T19:03:04.583Z,12.07
2018-08-14T19:05:33.578Z,12.90
2018-08-14T19:08:06.609Z,12.37
2018-08-14T19:10:35.567Z,12.60
2018-08-14T19:13:04.181Z,12.83
2018-08-14T19:15:35.681Z,13.50
2018-08-14T19:18:04.623Z,11.90
2018-08-14T19:20:33.233Z,11.97
2018-08-14T19:23:01.778Z,12.97
2018-08-14T19:25:31.377Z,12.93
2018-08-14T19:27:59.849Z,12.30
2018-08-14T19:30:28.341Z,12.43
2018-08-14T19:32:56.795Z,12.23
2018-08-14T19:35:25.330Z,13.23
2018-08-14T19:37:53.866Z,13.47
2018-08-14T19:40:25.625Z,12.17
2018-08-14T19:42:54.511Z,11.87
2018-08-14T19:45:23.025Z,12.20
2018-08-14T19:47:51.628Z,12.87
2018-08-14T19:50:20.652Z,12.07
2018-08-14T19:52:49.124Z,11.90
2018-08-14T19:55:19.143Z,11.50
2018-08-14T19:57:49.132Z,12.13
2018-08-14T20:00:27.629Z,11.80
2018-08-14T20:02:56.599Z,11.50
2018-08-14T20:05:25.309Z,11.80
2018-08-14T20:07:54.233Z,11.90
2018-08-14T20:10:22.884Z,12.60
2018-08-14T20:12:51.498Z,11.03
2018-08-14T20:15:25.552Z,10.87
2018-08-14T20:17:54.340Z,11.80
2018-08-14T20:20:23.114Z,11.70
2018-08-14T20:22:52.792Z,10.97
2018-08-14T20:25:21.434Z,11.00
2018-08-14T20:27:50.153Z,11.83
2018-08-14T20:30:19.335Z,11.47
2018-08-14T20:32:47.924Z,11.77
2018-08-14T20:35:17.247Z,14.50
2018-08-14T20:37:46.546Z,11.53
2018-08-14T20:40:17.815Z,12.27
2018-08-14T20:42:48.353Z,11.27
2018-08-14T20:45:16.945Z,11.47
2018-08-14T20:47:45.656Z,11.83
2018-08-14T20:50:19.102Z,12.03
2018-08-14T20:52:48.117Z,12.37
2018-08-14T20:55:17.407Z,11.87
2018-08-14T20:57:46.175Z,13.70
2018-08-14T21:00:18.784Z,13.10
2018-08-14T21:02:50.242Z,13.17
2018-08-14T21:05:18.743Z,12.50
2018-08-14T21:07:47.885Z,12.40
2018-08-14T21:10:17.106Z,13.67
2018-08-14T21:12:45.767Z,13.57
2018-08-14T21:15:16.461Z,13.10
2018-08-14T21:17:46.217Z,13.10
2018-08-14T21:20:17.337Z,12.80
2018-08-14T21:22:46.606Z,13.80
2018-08-14T21:25:15.145Z,12.53
2018-08-14T21:27:43.629Z,17.03
2018-08-14T21:30:14.065Z,13.23
2018-08-14T21:32:42.941Z,14.67
2018-08-14T21:35:12.886Z,14.00
2018-08-14T21:37:41.322Z,13.67
2018-08-14T21:40:12.042Z,13.83
2018-08-14T21:42:40.734Z,14.57
2018-08-14T21:45:11.388Z,14.40
2018-08-14T21:47:40.029Z,13.87
2018-08-14T21:50:08.525Z,12.87
2018-08-14T21:52:37.509Z,12.17
2018-08-14T21:55:07.049Z,11.40
2018-08-14T21:57:35.559Z,10.57
2018-08-14T22:00:06.852Z,9.90
2018-08-14T22:02:35.330Z,9.97
2018-08-14T22:05:03.950Z,10.07
2018-08-14T22:07:32.354Z,9.63
2018-08-14T22:10:00.803Z,9.43
2018-08-14T22:12:29.419Z,8.50
2018-08-14T22:14:58.754Z,8.00
2018-08-14T22:17:28.034Z,9.90
2018-08-14T22:19:56.565Z,8.27
2018-08-14T22:22:25.045Z,7.93
2018-08-14T22:24:53.496Z,8.17
2018-08-14T22:27:21.974Z,7.47
2018-08-14T22:29:50.464Z,8.57
2018-08-14T22:32:18.997Z,8.30
2018-08-14T22:34:47.467Z,7.70
2018-08-14T22:37:16.012Z,9.57
2018-08-14T22:39:45.446Z,9.20
2018-08-14T22:42:13.881Z,8.20
2018-08-14T22:44:42.291Z,8.03
2018-08-14T22:47:10.733Z,7.83
2018-08-14T22:49:39.277Z,7.47
2018-08-14T22:52:07.749Z,8.07
2018-08-14T22:54:42.239Z,8.20
2018-08-14T22:57:10.657Z,9.50
2018-08-14T22:59:39.115Z,7.33
2018-08-14T23:02:07.607Z,7.97
2018-08-14T23:04:36.145Z,8.33
2018-08-14T23:07:04.773Z,7.43
2018-08-14T23:09:35.335Z,7.97
2018-08-14T23:12:03.845Z,8.40
2018-08-14T23:14:32.362Z,9.17
2018-08-14T23:17:00.838Z,7.53
2018-08-14T23:19:32.598Z,8.03
2018-08-14T23:22:01.129Z,9.97
2018-08-14T23:24:29.509Z,6.60
2018-08-14T23:26:57.991Z,7.27
2018-08-14T23:29:26.369Z,7.53
2018-08-14T23:31:54.799Z,8.13
2018-08-14T23:34:23.559Z,9.03
2018-08-14T23:36:54.070Z,9.07
2018-08-14T23:39:22.518Z,8.83
2018-08-14T23:41:50.938Z,8.50
2018-08-14T23:44:19.381Z,8.20
2018-08-14T23:46:47.803Z,9.10
2018-08-14T23:49:16.326Z,8.93
2018-08-14T23:51:44.804Z,8.10
2018-08-14T23:54:13.306Z,7.97
2018-08-14T23:56:41.989Z,8.87
2018-08-14T23:59:10.481Z,11.40
